Time;durP1;ratioP1;P1;durP2;ratioP2;P2;SDS_P1;SDS_P2;PMS_P1;PMS_P2;Temp;Humidity;BMP_temperature;BMP_pressure;BME280_temperature;BME280_humidity;BME280_pressure;Samples;Min_cycle;Max_cycle;Signal;HPM_P1;HPM_P2
2020/12/15 00:01:34;;;;;;;4.00;3.57;;;;;;;9.96;62.57;100927.72;6117750;28;20236;-54
2020/12/15 00:04:56;;;;;;;3.50;2.67;;;;;;;10.00;63.62;100919.06;6119202;28;20236;-51
2020/12/15 00:08:16;;;;;;;4.40;3.67;;;;;;;9.78;64.04;100922.63;6111195;28;20231;-56
2020/12/15 00:11:36;;;;;;;3.30;3.00;;;;;;;9.72;64.12;100923.50;6121937;28;21214;-55
2020/12/15 00:14:57;;;;;;;3.30;3.00;;;;;;;9.72;63.73;100918.31;6111175;28;20252;-57
2020/12/15 00:18:17;;;;;;;4.27;3.87;;;;;;;9.75;64.10;100913.09;6109274;28;20247;-56
2020/12/15 00:21:43;;;;;;;5.07;3.87;;;;;;;9.85;63.37;100901.78;6110571;28;20622;-57
2020/12/15 00:25:05;;;;;;;2.87;2.67;;;;;;;9.76;63.34;100919.16;6114581;28;20243;-56
2020/12/15 00:28:25;;;;;;;3.80;3.20;;;;;;;9.74;63.47;100921.75;6111247;28;20616;-57
2020/12/15 00:31:46;;;;;;;3.87;3.50;;;;;;;9.66;63.58;100916.59;6122003;28;20562;-55
2020/12/15 00:35:06;;;;;;;3.87;2.93;;;;;;;9.62;63.10;100917.47;6129726;28;20252;-54
2020/12/15 00:38:28;;;;;;;3.93;3.23;;;;;;;9.83;63.18;100910.47;6111925;28;20247;-57
2020/12/15 00:41:49;;;;;;;4.33;3.90;;;;;;;9.91;62.98;100924.31;6112721;28;20239;-56
2020/12/15 00:45:09;;;;;;;3.70;3.23;;;;;;;9.88;62.79;100928.66;6116354;28;20590;-58
2020/12/15 00:48:29;;;;;;;3.20;2.97;;;;;;;9.86;63.33;100926.03;6106251;28;20227;-56
2020/12/15 00:51:50;;;;;;;4.60;4.00;;;;;;;9.88;63.10;100907.84;6115594;28;20231;-56
2020/12/15 00:55:12;;;;;;;4.13;3.83;;;;;;;9.96;63.30;100917.31;6105360;28;20717;-54
2020/12/15 00:58:34;;;;;;;4.23;3.40;;;;;;;9.93;62.88;100896.53;6098383;28;20247;-54
2020/12/15 01:01:57;;;;;;;3.20;2.90;;;;;;;10.07;62.94;100895.59;6111284;28;20232;-57
2020/12/15 01:05:18;;;;;;;4.50;4.07;;;;;;;10.13;63.54;100880.81;6112483;28;20531;-57
2020/12/15 01:08:41;;;;;;;3.83;3.53;;;;;;;10.00;63.16;100873.94;6105446;29;20230;-58
2020/12/15 01:12:07;;;;;;;4.20;3.03;;;;;;;9.86;63.74;100868.81;6119979;28;20231;-57
2020/12/15 01:15:28;;;;;;;3.77;3.13;;;;;;;10.01;63.90;100863.53;6088464;28;20228;-56
2020/12/15 01:18:49;;;;;;;3.80;3.50;;;;;;;10.17;63.09;100858.22;6123305;28;20234;-56
2020/12/15 01:22:18;;;;;;;3.67;3.37;;;;;;;9.97;63.73;100854.03;6113852;28;20243;-53
2020/12/15 01:25:39;;;;;;;3.23;3.03;;;;;;;10.02;63.42;100849.66;6113404;28;20235;-57
2020/12/15 01:29:01;;;;;;;6.33;4.73;;;;;;;10.00;63.64;100835.81;6115149;28;20239;-55
2020/12/15 01:32:22;;;;;;;4.00;3.30;;;;;;;9.96;63.79;100828.00;6117969;28;20224;-57
2020/12/15 01:35:44;;;;;;;3.97;3.57;;;;;;;9.86;63.88;100830.66;6096938;28;20843;-52
2020/12/15 01:39:05;;;;;;;4.63;3.30;;;;;;;9.63;64.64;100823.00;6113317;28;20235;-56
2020/12/15 01:42:36;;;;;;;6.33;3.50;;;;;;;9.63;64.71;100819.53;6114686;28;20235;-55
2020/12/15 01:45:58;;;;;;;3.83;3.53;;;;;;;9.66;64.69;100820.38;6123709;28;20700;-56
2020/12/15 01:49:19;;;;;;;4.00;3.60;;;;;;;9.79;64.68;100815.09;6104297;28;20244;-56
2020/12/15 01:52:53;;;;;;;5.17;4.27;;;;;;;9.62;65.11;100794.41;6104465;28;20227;-56
2020/12/15 01:56:13;;;;;;;4.23;3.77;;;;;;;9.53;65.30;100795.31;6109547;28;20239;-55
2020/12/15 01:59:36;;;;;;;5.70;3.77;;;;;;;9.83;64.67;100785.63;6116447;28;20239;-57
2020/12/15 02:02:59;;;;;;;4.27;3.43;;;;;;;9.72;64.32;100777.03;6100340;28;20985;-53
2020/12/15 02:06:41;;;;;;;4.13;3.73;;;;;;;9.46;65.10;100773.69;6119415;28;20355;-56
2020/12/15 02:10:06;;;;;;;4.20;3.80;;;;;;;9.24;65.81;100785.91;6104603;28;20243;-57
2020/12/15 02:13:51;;;;;;;4.50;3.77;;;;;;;9.51;65.52;100785.81;6111701;28;20230;-55
2020/12/15 02:17:13;;;;;;;4.10;3.73;;;;;;;9.49;64.94;100784.94;6112705;28;20330;-57
2020/12/15 02:21:03;;;;;;;7.27;3.43;;;;;;;9.29;65.65;100782.44;6113460;28;20315;-55
2020/12/15 02:24:31;;;;;;;3.87;3.50;;;;;;;9.61;65.04;100777.91;6106352;28;20235;-57
2020/12/15 02:28:03;;;;;;;4.50;3.70;;;;;;;9.49;65.21;100769.34;6095288;28;20239;-56
2020/12/15 02:31:23;;;;;;;4.00;3.70;;;;;;;9.53;65.50;100763.25;6109471;28;20542;-54
2020/12/15 02:34:44;;;;;;;5.30;4.90;;;;;;;9.48;65.10;100760.69;6103367;28;20614;-58
2020/12/15 02:38:08;;;;;;;3.97;3.17;;;;;;;9.39;65.32;100763.34;6101690;28;20314;-54
2020/12/15 02:41:30;;;;;;;4.30;3.90;;;;;;;9.31;64.97;100776.38;6116798;28;20240;-56
2020/12/15 02:44:53;;;;;;;8.13;4.00;;;;;;;9.24;65.38;100772.06;6105517;28;20232;-55
2020/12/15 02:48:17;;;;;;;5.90;4.33;;;;;;;9.44;64.91;100771.94;6097534;28;20247;-56
2020/12/15 02:51:38;;;;;;;3.47;3.17;;;;;;;9.21;65.18;100778.13;6122330;28;20236;-55
2020/12/15 02:55:09;;;;;;;3.93;3.63;;;;;;;9.68;64.42;100781.38;6101540;28;20231;-54
2020/12/15 02:58:35;;;;;;;4.30;3.93;;;;;;;9.63;64.33;100783.13;6107645;28;20589;-57
2020/12/15 03:01:57;;;;;;;4.27;3.80;;;;;;;9.58;64.54;100780.56;6105014;28;20235;-53
2020/12/15 03:05:22;;;;;;;4.70;4.30;;;;;;;9.49;64.81;100791.00;6112271;28;20236;-58
2020/12/15 03:08:43;;;;;;;4.73;4.27;;;;;;;9.75;64.26;100789.97;6111200;28;20220;-52
2020/12/15 03:12:04;;;;;;;4.83;4.43;;;;;;;9.78;63.97;100802.97;6115318;28;20358;-54
2020/12/15 03:15:35;;;;;;;4.47;4.07;;;;;;;9.53;64.45;100791.84;6109090;28;20582;-56
2020/12/15 03:18:58;;;;;;;5.07;4.40;;;;;;;9.49;64.47;100796.19;6110617;28;20224;-55
2020/12/15 03:22:19;;;;;;;6.57;4.00;;;;;;;9.70;64.42;100800.44;6115625;28;20239;-57
2020/12/15 03:25:46;;;;;;;4.17;3.67;;;;;;;9.88;63.70;100807.25;6109194;28;20235;-53
2020/12/15 03:29:06;;;;;;;4.83;4.07;;;;;;;9.86;63.92;100811.59;6116537;28;20588;-53
2020/12/15 03:32:28;;;;;;;4.90;4.50;;;;;;;9.81;64.03;100806.44;6110089;28;20244;-52
2020/12/15 03:35:49;;;;;;;4.60;4.00;;;;;;;9.90;63.44;100800.28;6106268;28;20243;-54
2020/12/15 03:39:14;;;;;;;3.80;3.50;;;;;;;9.94;63.55;100801.13;6091526;28;20518;-56
2020/12/15 03:42:35;;;;;;;4.27;3.87;;;;;;;9.69;64.41;100785.69;6096243;28;20232;-57
2020/12/15 03:45:56;;;;;;;4.50;4.10;;;;;;;9.97;63.92;100786.38;6105561;28;20233;-57
2020/12/15 03:49:18;;;;;;;4.23;3.80;;;;;;;10.16;63.29;100789.72;6113733;28;20235;-55
2020/12/15 03:52:45;;;;;;;4.67;4.17;;;;;;;9.87;63.79;100787.31;6099459;28;20590;-56
2020/12/15 03:56:12;;;;;;;4.37;3.70;;;;;;;10.01;63.58;100779.41;6106517;28;20260;-54
2020/12/15 03:59:32;;;;;;;4.80;4.40;;;;;;;10.20;63.23;100774.94;6120123;28;20227;-56
2020/12/15 04:02:54;;;;;;;4.30;3.97;;;;;;;9.98;63.21;100779.44;6103199;28;20263;-54
2020/12/15 04:06:23;;;;;;;4.97;4.50;;;;;;;9.78;64.16;100787.38;6121200;28;20254;-55
2020/12/15 04:09:53;;;;;;;5.53;4.73;;;;;;;9.38;64.68;100792.78;6118878;28;20323;-52
2020/12/15 04:13:15;;;;;;;5.00;4.53;;;;;;;9.52;64.70;100792.72;6109746;28;20236;-51
2020/12/15 04:16:38;;;;;;;5.77;4.27;;;;;;;9.36;65.16;100787.59;6115356;28;20240;-55
2020/12/15 04:20:04;;;;;;;5.00;4.53;;;;;;;9.62;64.40;100794.41;6110646;28;20256;-57
2020/12/15 04:23:27;;;;;;;4.67;4.20;;;;;;;9.56;64.59;100782.31;6107567;29;21046;-52
2020/12/15 04:26:48;;;;;;;6.20;4.57;;;;;;;9.75;63.96;100788.28;6114660;28;20236;-54
2020/12/15 04:30:09;;;;;;;4.90;4.50;;;;;;;9.71;64.03;100788.28;6113840;28;20629;-55
2020/12/15 04:33:29;;;;;;;5.47;4.40;;;;;;;9.78;63.50;100790.84;6114778;28;20222;-57
2020/12/15 04:36:51;;;;;;;4.87;4.47;;;;;;;9.85;63.58;100795.13;6117478;28;20231;-57
2020/12/15 04:40:19;;;;;;;6.43;5.33;;;;;;;9.92;63.46;100790.75;6114158;28;20239;-55
2020/12/15 04:43:42;;;;;;;4.97;4.50;;;;;;;9.83;63.75;100786.47;6114593;28;20263;-56
2020/12/15 04:47:12;;;;;;;6.13;4.60;;;;;;;9.61;64.24;100790.91;6114788;28;20247;-55
2020/12/15 04:50:38;;;;;;;6.43;5.30;;;;;;;9.92;63.58;100785.53;6121360;28;20239;-54
2020/12/15 04:54:04;;;;;;;6.33;5.40;;;;;;;9.85;63.52;100791.69;6110079;28;20224;-58
2020/12/15 04:57:39;;;;;;;5.07;4.67;;;;;;;9.70;63.83;100789.16;6104777;28;20712;-57
2020/12/15 05:01:00;;;;;;;5.47;4.97;;;;;;;9.70;63.65;100791.78;6117229;28;20267;-57
2020/12/15 05:04:49;;;;;;;5.10;4.67;;;;;;;9.74;63.74;100796.06;6120074;28;20230;-58
2020/12/15 05:08:12;;;;;;;6.07;4.50;;;;;;;9.56;63.83;100802.25;6111173;28;20243;-55
2020/12/15 05:11:40;;;;;;;5.40;4.90;;;;;;;9.64;64.18;100800.47;6113039;28;21063;-53
2020/12/15 05:15:15;;;;;;;5.50;5.00;;;;;;;9.76;63.66;100795.19;6102765;28;20348;-55
2020/12/15 05:18:37;;;;;;;7.27;5.80;;;;;;;9.74;64.02;100790.88;6114978;28;20646;-56
2020/12/15 05:22:00;;;;;;;6.03;5.53;;;;;;;9.59;64.28;100795.28;6113910;28;20521;-57
2020/12/15 05:25:29;;;;;;;7.00;5.33;;;;;;;9.65;64.16;100797.88;6106812;28;20227;-55
2020/12/15 05:29:05;;;;;;;5.07;4.57;;;;;;;9.83;63.73;100798.63;6099861;28;20223;-54
2020/12/15 05:32:29;;;;;;;6.53;4.93;;;;;;;9.80;64.05;100801.22;6110003;28;20335;-56
2020/12/15 05:36:19;;;;;;;6.03;5.07;;;;;;;9.76;63.42;100809.94;6109415;28;20247;-56
2020/12/15 05:39:59;;;;;;;5.43;4.93;;;;;;;9.96;63.47;100807.19;6107503;28;20224;-56
2020/12/15 05:43:26;;;;;;;4.83;4.43;;;;;;;9.72;63.63;100809.09;6105209;28;20236;-53
2020/12/15 05:46:50;;;;;;;5.10;4.60;;;;;;;9.93;63.36;100808.09;6110271;28;20247;-55
2020/12/15 05:50:20;;;;;;;5.10;4.70;;;;;;;10.05;63.13;100797.59;6117118;28;20235;-54
2020/12/15 05:53:40;;;;;;;6.13;5.47;;;;;;;9.98;63.16;100797.63;6118589;28;20234;-56
2020/12/15 05:57:02;;;;;;;5.00;4.53;;;;;;;10.04;63.46;100805.41;6118456;28;20228;-57
2020/12/15 06:00:25;;;;;;;10.70;4.78;;;;;;;9.97;63.36;100799.38;6117969;28;20660;-54
2020/12/15 06:03:56;;;;;;;6.83;6.07;;;;;;;9.79;64.48;100802.09;6080696;28;20263;-52
2020/12/15 06:07:21;;;;;;;5.37;4.87;;;;;;;9.63;65.37;100804.81;6117986;28;20239;-56
2020/12/15 06:10:47;;;;;;;7.17;5.27;;;;;;;9.80;64.57;100802.09;6117978;28;20532;-56
2020/12/15 06:14:09;;;;;;;7.40;5.77;;;;;;;9.86;64.29;100806.38;6117176;28;20243;-55
2020/12/15 06:17:30;;;;;;;7.70;5.47;;;;;;;9.72;65.56;100803.88;6108294;28;20236;-57
2020/12/15 06:20:50;;;;;;;6.77;5.93;;;;;;;9.72;65.33;100800.41;6110736;28;20542;-55
2020/12/15 06:24:12;;;;;;;7.83;6.47;;;;;;;9.84;65.75;100797.75;6109338;28;20231;-56
2020/12/15 06:27:34;;;;;;;6.53;5.87;;;;;;;9.99;65.32;100792.44;6102134;28;20323;-54
2020/12/15 06:30:59;;;;;;;7.83;6.47;;;;;;;9.93;65.48;100782.06;6129261;28;20319;-54
2020/12/15 06:34:25;;;;;;;6.30;5.70;;;;;;;9.88;65.28;100772.56;6102784;28;20243;-56
2020/12/15 06:37:46;;;;;;;6.13;5.53;;;;;;;9.89;65.34;100775.16;6097684;28;20228;-54
2020/12/15 06:41:10;;;;;;;6.73;5.93;;;;;;;9.89;65.67;100775.16;6115769;28;20240;-58
2020/12/15 06:44:32;;;;;;;7.57;6.50;;;;;;;9.96;65.33;100776.84;6110244;28;20243;-57
2020/12/15 06:47:57;;;;;;;6.17;5.67;;;;;;;9.99;65.36;100775.97;6104021;28;20227;-59
2020/12/15 06:51:27;;;;;;;6.80;6.03;;;;;;;10.07;65.32;100779.38;6116316;28;20236;-53
2020/12/15 06:54:56;;;;;;;7.90;5.90;;;;;;;10.08;65.27;100777.63;6110688;28;20360;-60
2020/12/15 06:58:22;;;;;;;8.17;6.00;;;;;;;10.09;64.72;100793.22;6104710;28;20234;-59
2020/12/15 07:01:44;;;;;;;8.55;6.88;;;;;;;9.77;66.23;100796.94;6110365;28;21152;-55
2020/12/15 07:05:23;;;;;;;6.63;6.03;;;;;;;9.89;66.17;100811.59;6103728;28;21048;-59
2020/12/15 07:08:44;;;;;;;11.07;6.03;;;;;;;9.94;65.79;100815.00;6102624;28;20239;-59
2020/12/15 07:12:10;;;;;;;9.67;5.20;;;;;;;9.86;65.73;100807.25;6107744;28;20330;-58
2020/12/15 07:15:34;;;;;;;8.63;6.30;;;;;;;9.76;66.44;100815.13;6104578;28;20236;-57
2020/12/15 07:18:55;;;;;;;7.37;6.47;;;;;;;9.81;66.43;100813.38;6104206;28;20239;-55
2020/12/15 07:22:15;;;;;;;11.77;7.20;;;;;;;9.94;66.26;100817.59;6119384;28;20259;-55
2020/12/15 07:25:36;;;;;;;9.93;6.90;;;;;;;9.95;66.28;100821.09;6113330;28;20223;-58
2020/12/15 07:28:56;;;;;;;7.80;6.40;;;;;;;9.91;66.33;100824.59;6117700;28;20231;-55
2020/12/15 07:32:18;;;;;;;8.10;7.30;;;;;;;10.05;65.77;100827.97;6116820;28;20505;-58
2020/12/15 07:35:39;;;;;;;7.13;6.43;;;;;;;10.03;65.91;100820.16;6115750;28;20549;-54
2020/12/15 07:39:00;;;;;;;8.23;6.07;;;;;;;10.00;65.55;100817.59;6109373;28;20275;-55
2020/12/15 07:42:21;;;;;;;8.07;6.60;;;;;;;9.80;66.74;100827.25;6112393;28;20252;-58
2020/12/15 07:45:41;;;;;;;6.20;5.60;;;;;;;9.85;66.89;100828.09;6116380;28;20298;-57
2020/12/15 07:49:04;;;;;;;9.00;6.67;;;;;;;9.86;66.84;100824.59;6116905;28;20654;-58
2020/12/15 07:52:32;;;;;;;7.27;6.67;;;;;;;9.52;68.40;100827.38;6108880;28;20828;-56
2020/12/15 07:56:02;;;;;;;8.73;7.97;;;;;;;9.58;67.86;100827.34;6122164;28;20243;-55
2020/12/15 07:59:25;;;;;;;7.53;6.83;;;;;;;9.37;68.76;100832.66;6115741;28;20227;-58
2020/12/15 08:02:46;;;;;;;11.97;7.50;;;;;;;9.50;68.71;100828.25;6105097;28;20228;-57
2020/12/15 08:06:10;;;;;;;11.27;7.70;;;;;;;9.62;68.04;100828.22;6123688;28;20251;-55
2020/12/15 08:09:32;;;;;;;6.63;6.03;;;;;;;9.61;68.31;100829.94;6106384;28;20334;-53
2020/12/15 08:12:55;;;;;;;8.10;6.70;;;;;;;9.72;68.29;100827.28;6100818;28;20550;-54
2020/12/15 08:16:15;;;;;;;8.50;7.70;;;;;;;9.39;69.34;100820.50;6115163;28;20247;-59
2020/12/15 08:19:36;;;;;;;10.80;7.40;;;;;;;9.68;68.22;100827.31;6112680;28;20263;-57
2020/12/15 08:23:06;;;;;;;9.03;7.17;;;;;;;9.86;67.75;100829.81;6104624;28;20231;-58
2020/12/15 08:26:27;;;;;;;7.27;6.60;;;;;;;9.85;68.00;100830.69;6120701;28;20239;-60
2020/12/15 08:29:48;;;;;;;6.80;6.20;;;;;;;9.95;67.67;100840.16;6109855;28;20239;-53
2020/12/15 08:33:08;;;;;;;9.80;8.00;;;;;;;9.98;67.42;100841.88;6111350;28;20235;-54
2020/12/15 08:36:28;;;;;;;7.77;7.00;;;;;;;10.11;67.10;100851.31;6115371;28;20248;-57
2020/12/15 08:39:51;;;;;;;8.63;7.67;;;;;;;9.63;68.72;100845.53;6108655;28;20232;-54
2020/12/15 08:43:15;;;;;;;8.47;7.67;;;;;;;9.97;67.94;100850.56;6105544;28;20251;-56
2020/12/15 08:46:36;;;;;;;10.07;8.27;;;;;;;9.94;67.65;100854.03;6111129;28;20694;-54
2020/12/15 08:49:57;;;;;;;9.93;9.03;;;;;;;9.85;68.36;100846.31;6107536;28;20255;-56
2020/12/15 08:53:18;;;;;;;9.83;8.23;;;;;;;9.73;68.78;100843.75;6103583;28;20234;-58
2020/12/15 08:56:41;;;;;;;9.43;8.50;;;;;;;9.61;69.42;100845.53;6114413;28;20296;-59
2020/12/15 09:00:15;;;;;;;10.53;9.43;;;;;;;9.86;68.03;100859.28;6104576;28;20232;-58
2020/12/15 09:03:46;;;;;;;8.17;7.37;;;;;;;9.76;68.80;100855.00;6103678;28;20238;-61
2020/12/15 09:07:13;;;;;;;7.50;6.77;;;;;;;10.05;67.53;100860.03;6108280;28;20609;-58
2020/12/15 09:10:34;;;;;;;14.10;7.00;;;;;;;9.91;68.17;100855.81;6103905;28;20228;-61
2020/12/15 09:13:57;;;;;;;9.00;8.20;;;;;;;9.80;68.48;100855.84;6106504;28;20248;-59
2020/12/15 09:17:23;;;;;;;8.40;7.60;;;;;;;9.95;68.21;100860.97;6118325;28;20236;-55
2020/12/15 09:20:44;;;;;;;10.53;7.90;;;;;;;9.99;67.60;100860.06;6116122;28;20239;-57
2020/12/15 09:24:04;;;;;;;10.27;7.53;;;;;;;10.01;67.56;100852.28;6118451;28;20579;-56
2020/12/15 09:27:25;;;;;;;9.33;8.43;;;;;;;9.85;68.36;100857.56;6116605;28;20228;-60
2020/12/15 09:30:46;;;;;;;8.47;7.63;;;;;;;9.92;68.33;100860.97;6112512;28;20232;-55
2020/12/15 09:34:07;;;;;;;8.73;7.83;;;;;;;10.01;68.11;100858.34;6124136;28;20238;-58
2020/12/15 09:37:27;;;;;;;8.27;7.47;;;;;;;10.07;67.82;100864.38;6116639;28;20224;-57
2020/12/15 09:40:48;;;;;;;8.90;8.10;;;;;;;9.82;68.86;100859.31;6121339;28;20248;-57
2020/12/15 09:44:09;;;;;;;9.37;8.57;;;;;;;9.78;69.13;100860.19;6115556;28;20631;-57
2020/12/15 09:47:30;;;;;;;10.67;8.90;;;;;;;9.90;68.88;100859.25;6115742;28;20236;-59
2020/12/15 09:50:52;;;;;;;9.33;8.50;;;;;;;10.04;68.35;100868.72;6115502;28;20259;-53
2020/12/15 09:54:13;;;;;;;10.10;9.10;;;;;;;10.18;68.28;100867.78;6119632;28;20234;-57
2020/12/15 09:57:33;;;;;;;10.60;7.97;;;;;;;10.22;68.01;100866.88;6089769;28;20228;-57
2020/12/15 10:00:54;;;;;;;8.33;7.47;;;;;;;10.47;67.27;100856.31;6115288;28;20231;-57
2020/12/15 10:04:15;;;;;;;9.37;8.50;;;;;;;10.39;67.33;100857.25;6119388;28;20234;-57
2020/12/15 10:07:35;;;;;;;8.73;7.93;;;;;;;10.36;67.54;100854.66;6102059;28;20233;-58
2020/12/15 10:10:56;;;;;;;8.50;7.50;;;;;;;10.47;66.91;100841.56;6107400;28;20228;-51
2020/12/15 10:14:16;;;;;;;10.30;9.20;;;;;;;10.23;68.20;100837.38;6125442;28;20823;-51
2020/12/15 10:17:37;;;;;;;11.00;7.63;;;;;;;10.54;67.08;100850.19;6101513;28;20236;-58
2020/12/15 10:20:58;;;;;;;10.07;8.10;;;;;;;10.53;67.01;100867.56;6118804;28;20361;-57
2020/12/15 10:24:19;;;;;;;9.00;8.10;;;;;;;10.44;66.98;100871.06;6115861;28;20227;-54
2020/12/15 10:27:39;;;;;;;10.30;7.70;;;;;;;10.30;67.86;100865.13;6105397;28;20757;-56
2020/12/15 10:31:00;;;;;;;8.53;7.67;;;;;;;10.55;67.41;100870.16;6119059;28;20537;-55
2020/12/15 10:34:20;;;;;;;10.67;8.67;;;;;;;10.57;66.84;100873.59;6113374;28;20280;-59
2020/12/15 10:37:42;;;;;;;8.70;7.80;;;;;;;10.67;66.55;100875.25;6107253;28;20271;-57
2020/12/15 10:41:02;;;;;;;10.80;9.43;;;;;;;10.51;67.01;100869.31;6109760;28;20231;-54
2020/12/15 10:44:23;;;;;;;9.60;8.70;;;;;;;10.75;66.51;100865.63;6122267;28;20230;-55
2020/12/15 10:47:43;;;;;;;9.53;8.60;;;;;;;10.71;66.43;100866.53;6106115;28;20235;-59
2020/12/15 10:51:04;;;;;;;9.47;8.67;;;;;;;10.47;67.33;100866.72;6116561;28;20857;-59
2020/12/15 10:54:26;;;;;;;10.30;9.10;;;;;;;10.52;67.19;100870.16;6116666;28;20905;-55
2020/12/15 10:57:47;;;;;;;10.73;8.53;;;;;;;10.42;67.76;100866.75;6113313;28;20250;-59
2020/12/15 11:01:07;;;;;;;11.30;8.53;;;;;;;10.49;67.70;100871.06;6120515;28;20535;-57
2020/12/15 11:04:28;;;;;;;9.40;8.47;;;;;;;10.59;67.29;100875.31;6130684;28;20239;-56
2020/12/15 11:07:48;;;;;;;9.37;8.17;;;;;;;10.60;67.23;100883.97;6112932;28;20251;-56
2020/12/15 11:11:11;;;;;;;12.03;7.70;;;;;;;10.63;67.09;100883.97;6132903;28;20614;-55
2020/12/15 11:14:34;;;;;;;8.77;7.87;;;;;;;10.48;67.64;100887.53;6127375;28;20612;-54
2020/12/15 11:17:54;;;;;;;9.67;8.67;;;;;;;10.72;67.39;100883.00;6111466;28;20231;-51
2020/12/15 11:21:15;;;;;;;8.27;7.47;;;;;;;10.94;66.38;100881.09;6128562;28;20235;-60
2020/12/15 11:24:37;;;;;;;9.73;8.83;;;;;;;10.84;66.68;100875.97;6125718;28;20235;-55
2020/12/15 11:27:58;;;;;;;12.80;9.20;;;;;;;10.56;67.65;100883.13;6103105;28;20322;-52
2020/12/15 11:31:19;;;;;;;9.23;8.43;;;;;;;10.98;66.70;100875.81;6127102;28;20236;-54
2020/12/15 11:34:39;;;;;;;9.17;8.27;;;;;;;11.20;66.10;100863.41;6121443;28;20323;-54
2020/12/15 11:38:00;;;;;;;8.80;8.00;;;;;;;11.27;65.57;100873.81;6117442;28;20239;-54
2020/12/15 11:41:26;;;;;;;9.13;8.23;;;;;;;11.23;65.70;100871.22;6124414;28;20254;-57
2020/12/15 11:44:47;;;;;;;8.33;7.50;;;;;;;11.25;65.78;100872.97;6118198;28;20239;-56
2020/12/15 11:48:08;;;;;;;9.63;8.63;;;;;;;11.22;65.62;100868.63;6127853;28;20236;-53
2020/12/15 11:51:28;;;;;;;10.60;8.93;;;;;;;10.76;67.48;100877.78;6120670;28;20231;-54
2020/12/15 11:54:50;;;;;;;9.13;8.40;;;;;;;10.84;67.76;100881.16;6118375;28;20684;-59
2020/12/15 11:58:10;;;;;;;9.27;8.47;;;;;;;10.80;68.01;100889.03;6112594;28;20716;-57
2020/12/15 12:01:32;;;;;;;10.57;9.63;;;;;;;10.91;67.34;100883.72;6124881;28;20323;-58
2020/12/15 12:04:52;;;;;;;9.57;8.67;;;;;;;11.01;67.17;100874.91;6121078;28;20331;-58
2020/12/15 12:08:13;;;;;;;9.90;9.00;;;;;;;11.23;66.58;100866.00;6103000;28;20327;-59
2020/12/15 12:11:33;;;;;;;10.87;9.57;;;;;;;11.31;66.59;100871.13;6121467;28;20235;-55
2020/12/15 12:14:54;;;;;;;10.30;9.27;;;;;;;11.39;66.08;100876.25;6128552;28;20236;-59
2020/12/15 12:18:15;;;;;;;9.77;8.77;;;;;;;11.35;66.24;100879.78;6120612;28;20306;-57
2020/12/15 12:21:37;;;;;;;9.73;8.70;;;;;;;11.29;66.20;100874.66;6131292;28;20252;-57
2020/12/15 12:24:58;;;;;;;10.30;9.37;;;;;;;11.41;66.39;100882.31;6126637;28;20311;-56
2020/12/15 12:28:18;;;;;;;11.13;9.97;;;;;;;11.23;66.68;100879.03;6116376;28;20231;-60
2020/12/15 12:31:38;;;;;;;12.07;10.20;;;;;;;11.20;66.83;100884.28;6122943;28;20244;-59
2020/12/15 12:35:00;;;;;;;12.27;10.50;;;;;;;11.05;67.52;100876.66;6117478;28;20236;-59
2020/12/15 12:38:21;;;;;;;9.87;8.87;;;;;;;11.11;67.59;100876.56;6108580;28;20243;-59
2020/12/15 12:41:42;;;;;;;10.67;9.43;;;;;;;11.32;66.48;100874.59;6128079;28;20244;-54
2020/12/15 12:45:02;;;;;;;12.20;9.43;;;;;;;11.40;66.58;100883.22;6123573;28;20231;-58
2020/12/15 12:48:22;;;;;;;9.57;8.67;;;;;;;11.48;66.29;100875.31;6104909;28;20235;-58
2020/12/15 12:51:45;;;;;;;9.40;8.40;;;;;;;11.40;66.06;100875.41;6122311;28;20255;-57
2020/12/15 12:55:05;;;;;;;10.80;9.70;;;;;;;11.42;66.55;100876.25;6115152;28;20500;-63
2020/12/15 12:58:26;;;;;;;9.57;8.43;;;;;;;11.32;66.67;100882.41;6117520;28;20323;-60
2020/12/15 13:01:46;;;;;;;10.67;9.50;;;;;;;11.35;66.33;100882.41;6123795;28;20256;-54
2020/12/15 13:05:07;;;;;;;9.53;8.60;;;;;;;11.41;66.55;100874.50;6114872;28;20241;-58
2020/12/15 13:08:28;;;;;;;10.63;9.03;;;;;;;11.54;65.79;100881.31;6112454;28;20262;-61
2020/12/15 13:11:51;;;;;;;8.83;8.03;;;;;;;11.61;65.31;100890.78;6125961;28;20267;-62
2020/12/15 13:15:11;;;;;;;11.43;10.27;;;;;;;11.56;65.84;100894.34;6124671;28;20335;-54
2020/12/15 13:18:31;;;;;;;10.13;8.40;;;;;;;11.67;65.95;100888.97;6115391;28;20236;-58
2020/12/15 13:21:52;;;;;;;11.20;10.10;;;;;;;11.57;66.31;100902.16;6119627;28;20244;-57
2020/12/15 13:25:14;;;;;;;9.97;8.93;;;;;;;11.52;66.15;100903.94;6122886;28;20239;-57
2020/12/15 13:28:34;;;;;;;11.27;9.40;;;;;;;11.40;66.84;100906.69;6121410;28;20231;-55
2020/12/15 13:31:55;;;;;;;11.17;9.77;;;;;;;11.32;67.34;100905.88;6111265;28;20508;-58
2020/12/15 13:35:16;;;;;;;10.53;9.53;;;;;;;11.40;67.50;100907.53;6121669;28;20626;-62
2020/12/15 13:38:37;;;;;;;11.63;10.53;;;;;;;11.40;67.11;100907.53;6120100;28;20231;-58
2020/12/15 13:41:58;;;;;;;11.57;10.37;;;;;;;11.43;67.41;100904.03;6119545;28;20655;-60
2020/12/15 13:45:18;;;;;;;10.73;9.73;;;;;;;11.57;66.75;100909.97;6123119;28;20703;-60
2020/12/15 13:48:39;;;;;;;12.90;11.00;;;;;;;11.30;67.60;100912.84;6112616;28;20227;-58
2020/12/15 13:52:00;;;;;;;11.27;10.07;;;;;;;11.45;67.56;100910.09;6121970;28;20240;-55
2020/12/15 13:55:20;;;;;;;12.07;10.40;;;;;;;11.15;69.25;100914.75;6120320;28;20260;-54
2020/12/15 13:58:42;;;;;;;11.00;9.90;;;;;;;11.43;67.43;100914.47;6109983;28;20243;-59
2020/12/15 14:02:03;;;;;;;12.13;10.30;;;;;;;11.14;68.56;100920.84;6120115;28;20244;-56
2020/12/15 14:05:23;;;;;;;11.83;10.63;;;;;;;11.18;68.45;100925.13;6120694;28;20227;-61
2020/12/15 14:08:43;;;;;;;12.40;11.20;;;;;;;11.28;68.07;100925.91;6118485;28;20666;-55
2020/12/15 14:12:04;;;;;;;13.83;9.93;;;;;;;11.36;68.37;100921.50;6124606;28;20240;-57
2020/12/15 14:15:25;;;;;;;11.20;10.00;;;;;;;11.45;67.79;100927.50;6119176;28;20574;-53
2020/12/15 14:18:46;;;;;;;10.93;9.80;;;;;;;11.44;67.95;100929.25;6119784;28;20613;-59
2020/12/15 14:22:06;;;;;;;10.83;9.83;;;;;;;11.47;67.38;100928.34;6120963;28;20231;-59
2020/12/15 14:25:26;;;;;;;11.20;10.10;;;;;;;11.34;67.87;100922.38;6115128;28;20232;-58
2020/12/15 14:28:47;;;;;;;10.63;9.57;;;;;;;11.38;67.80;100924.06;6114480;28;20227;-54
2020/12/15 14:32:08;;;;;;;11.47;9.67;;;;;;;11.57;67.17;100920.41;6118717;28;20244;-56
2020/12/15 14:35:29;;;;;;;10.93;8.73;;;;;;;11.43;67.58;100920.53;6113012;28;20228;-56
2020/12/15 14:38:50;;;;;;;11.87;9.33;;;;;;;11.37;67.59;100930.19;6116020;28;20230;-57
2020/12/15 14:42:11;;;;;;;10.87;9.83;;;;;;;11.17;68.59;100927.78;6113933;28;20279;-52
2020/12/15 14:45:31;;;;;;;12.37;10.30;;;;;;;10.89;69.71;100930.63;6115039;28;20601;-56
2020/12/15 14:48:56;;;;;;;11.60;10.33;;;;;;;11.03;68.99;100926.16;6117846;28;20258;-60
2020/12/15 14:52:18;;;;;;;13.90;10.37;;;;;;;10.85;70.20;100936.72;6116495;28;20232;-60
2020/12/15 14:55:38;;;;;;;12.07;10.17;;;;;;;10.94;69.80;100933.19;6117912;28;20235;-59
2020/12/15 14:58:59;;;;;;;12.57;10.87;;;;;;;10.85;70.29;100926.31;6122223;28;20239;-57
2020/12/15 15:02:19;;;;;;;13.98;12.57;;;;;;;10.89;70.06;100933.22;6112450;28;20792;-59
2020/12/15 15:05:41;;;;;;;12.37;11.07;;;;;;;11.04;69.39;100927.03;6113202;28;20322;-56
2020/12/15 15:09:02;;;;;;;11.80;10.63;;;;;;;11.19;68.84;100931.25;6107666;28;20244;-55
2020/12/15 15:12:23;;;;;;;12.97;11.70;;;;;;;11.31;68.61;100928.50;6103875;28;20716;-58
2020/12/15 15:15:44;;;;;;;13.77;11.53;;;;;;;11.14;68.88;100931.25;6111602;28;20229;-56
2020/12/15 15:19:04;;;;;;;12.97;11.60;;;;;;;11.01;69.90;100932.25;6109168;28;20235;-57
2020/12/15 15:22:25;;;;;;;13.17;11.80;;;;;;;11.19;69.21;100936.44;6114015;28;20236;-57
2020/12/15 15:25:46;;;;;;;13.00;11.87;;;;;;;10.98;69.58;100929.69;6111406;28;20553;-58
2020/12/15 15:29:07;;;;;;;11.80;10.70;;;;;;;10.93;69.89;100921.91;6125314;28;20236;-55
2020/12/15 15:32:27;;;;;;;12.67;11.47;;;;;;;10.80;70.33;100930.72;6121173;28;20231;-56
2020/12/15 15:35:52;;;;;;;13.53;12.13;;;;;;;10.58;71.81;100925.66;6097414;28;20260;-54
2020/12/15 15:39:15;;;;;;;13.47;12.17;;;;;;;10.79;70.67;100927.22;6111188;28;20243;-55
2020/12/15 15:42:35;;;;;;;13.37;12.17;;;;;;;10.74;70.73;100929.03;6101827;28;20332;-51
2020/12/15 15:45:56;;;;;;;15.27;12.33;;;;;;;10.81;70.45;100932.44;6122554;28;20235;-56